Time;durP1;ratioP1;P1;durP2;ratioP2;P2;SDS_P1;SDS_P2;PMS_P1;PMS_P2;Temp;Humidity;BMP_temperature;BMP_pressure;BME280_temperature;BME280_humidity;BME280_pressure;Samples;Min_cycle;Max_cycle;Signal;HPM_P1;HPM_P2
2021/04/27 00:02:13;;;;;;;8.28;4.80;;;;;;;7.79;40.00;96855.91;1758039;81;21279;-78
2021/04/27 00:04:41;;;;;;;9.03;4.83;;;;;;;7.79;40.01;96857.70;1755402;81;21156;-78
2021/04/27 00:07:08;;;;;;;12.82;4.87;;;;;;;7.75;40.07;96846.56;1762684;81;21160;-76
2021/04/27 00:09:36;;;;;;;8.45;4.65;;;;;;;7.76;40.28;96844.80;1762753;81;21152;-78
2021/04/27 00:12:05;;;;;;;6.08;4.20;;;;;;;7.65;40.23;96824.11;1762404;81;21168;-77
2021/04/27 00:14:33;;;;;;;9.45;4.75;;;;;;;7.73;40.18;96835.83;1761737;81;21143;-78
2021/04/27 00:17:01;;;;;;;8.28;4.55;;;;;;;7.68;40.07;96829.60;1749318;81;21471;-78
2021/04/27 00:19:28;;;;;;;9.15;4.90;;;;;;;7.62;40.22;96834.82;1747865;82;21136;-77
2021/04/27 00:21:55;;;;;;;7.05;3.90;;;;;;;7.53;40.32;96829.41;1747934;82;21137;-78
2021/04/27 00:24:22;;;;;;;13.48;4.33;;;;;;;7.50;40.22;96841.80;1747796;82;21172;-77
2021/04/27 00:26:49;;;;;;;8.40;4.85;;;;;;;7.43;40.50;96844.95;1747807;82;21140;-77
2021/04/27 00:29:17;;;;;;;10.48;4.90;;;;;;;7.36;40.54;96845.89;1747648;82;21188;-77
2021/04/27 00:31:44;;;;;;;6.30;4.47;;;;;;;7.36;40.54;96845.89;1747508;82;21557;-77
2021/04/27 00:34:11;;;;;;;10.68;5.33;;;;;;;7.33;40.99;96835.12;1747022;82;21153;-78
2021/04/27 00:36:38;;;;;;;10.63;5.58;;;;;;;7.33;40.99;96835.12;1747669;82;21149;-78
2021/04/27 00:39:06;;;;;;;8.33;4.65;;;;;;;7.37;40.85;96822.66;1747555;82;21133;-78
2021/04/27 00:41:34;;;;;;;9.13;4.85;;;;;;;7.25;40.93;96815.17;1747752;82;21571;-77
2021/04/27 00:44:02;;;;;;;9.23;4.92;;;;;;;7.19;40.94;96816.45;1747748;82;21140;-78
2021/04/27 00:46:29;;;;;;;11.08;4.87;;;;;;;7.19;40.94;96816.45;1747749;82;21145;-78
2021/04/27 00:48:57;;;;;;;9.15;4.90;;;;;;;7.19;41.06;96824.80;1776101;81;21132;-78
2021/04/27 00:51:25;;;;;;;8.70;5.33;;;;;;;7.14;41.10;96832.16;1780119;81;21137;-78
2021/04/27 00:53:54;;;;;;;7.85;4.83;;;;;;;7.07;41.19;96834.83;1780163;81;21162;-77
2021/04/27 00:56:22;;;;;;;7.53;5.17;;;;;;;7.00;41.33;96827.41;1759967;81;21172;-78
2021/04/27 00:58:49;;;;;;;9.03;4.50;;;;;;;6.93;41.52;96820.07;1747899;82;21152;-77
2021/04/27 01:01:17;;;;;;;8.13;4.30;;;;;;;6.93;41.52;96820.07;1748616;82;21141;-78
2021/04/27 01:03:45;;;;;;;11.28;4.28;;;;;;;6.91;41.40;96825.43;1749287;81;21542;-77
2021/04/27 01:06:17;;;;;;;7.90;4.37;;;;;;;6.87;41.53;96818.26;1749255;82;21152;-76
2021/04/27 01:09:11;;;;;;;7.67;4.60;;;;;;;6.83;41.71;96813.34;1749324;81;21133;-77
2021/04/27 01:12:19;;;;;;;10.15;4.20;;;;;;;6.79;41.35;96810.55;1749310;82;21567;-77
2021/04/27 01:15:00;;;;;;;11.20;4.67;;;;;;;6.72;41.70;96812.78;1749810;81;21141;-78
2021/04/27 01:17:39;;;;;;;7.22;4.40;;;;;;;6.70;42.51;96815.48;1780364;79;23136;-79
2021/04/27 01:20:33;;;;;;;7.90;4.35;;;;;;;6.64;42.16;96824.23;1754991;81;21199;-77
2021/04/27 01:23:24;;;;;;;7.80;4.60;;;;;;;6.60;42.06;96811.00;1754786;81;21152;-78
2021/04/27 01:26:09;;;;;;;7.10;3.92;;;;;;;6.58;42.18;96813.73;1754851;82;21144;-78
2021/04/27 01:28:40;;;;;;;7.45;4.00;;;;;;;6.56;42.39;96808.58;1754454;82;21589;-77
2021/04/27 01:31:08;;;;;;;7.17;4.45;;;;;;;6.54;42.26;96807.84;1755315;81;21145;-77
2021/04/27 01:33:36;;;;;;;5.65;3.70;;;;;;;6.53;42.40;96802.72;1754884;81;21105;-78
2021/04/27 01:36:05;;;;;;;9.70;4.30;;;;;;;6.51;42.43;96795.44;1754806;81;21145;-78
2021/04/27 01:38:35;;;;;;;7.25;4.00;;;;;;;6.48;42.63;96784.70;1754204;82;21139;-78
2021/04/27 01:41:04;;;;;;;6.30;3.75;;;;;;;6.46;42.74;96781.84;1755446;82;21140;-76
2021/04/27 01:43:32;;;;;;;6.60;3.60;;;;;;;6.43;42.62;96773.73;1755388;82;21145;-79
2021/04/27 01:46:05;;;;;;;6.60;3.98;;;;;;;6.37;42.88;96774.12;1724495;82;21124;-78
2021/04/27 01:48:36;;;;;;;7.30;3.80;;;;;;;6.28;43.10;96778.68;1755046;81;21120;-78
2021/04/27 01:51:09;;;;;;;9.28;4.60;;;;;;;6.23;43.19;96771.14;1754342;82;21120;-78
2021/04/27 01:53:55;;;;;;;8.00;3.90;;;;;;;6.21;43.30;96767.33;1754700;82;21140;-77
2021/04/27 01:56:25;;;;;;;8.20;4.05;;;;;;;6.19;43.25;96759.22;1754938;82;21120;-78
2021/04/27 01:58:53;;;;;;;6.30;3.90;;;;;;;6.17;43.25;96766.33;1755091;82;21128;-77
2021/04/27 02:01:24;;;;;;;10.35;4.10;;;;;;;6.14;43.12;96768.69;1754241;82;21602;-78
2021/04/27 02:03:51;;;;;;;9.45;4.70;;;;;;;6.11;43.54;96767.58;1755020;82;21145;-76
2021/04/27 02:06:28;;;;;;;6.05;3.72;;;;;;;6.11;43.87;96765.45;1753719;82;21176;-78
2021/04/27 02:09:07;;;;;;;6.40;4.00;;;;;;;6.10;43.99;96771.14;1754841;82;21093;-78
2021/04/27 02:11:43;;;;;;;7.25;3.02;;;;;;;6.09;43.85;96769.45;1724483;83;21640;-78
2021/04/27 02:14:14;;;;;;;7.72;3.75;;;;;;;6.08;43.93;96769.09;1725053;83;21136;-76
2021/04/27 02:16:53;;;;;;;6.53;3.95;;;;;;;6.06;43.96;96780.15;1717624;83;21306;-78
2021/04/27 02:19:28;;;;;;;6.22;3.70;;;;;;;6.06;43.95;96777.53;1712432;84;21172;-77
2021/04/27 02:22:13;;;;;;;6.17;3.60;;;;;;;6.10;44.65;96773.75;1825875;77;23013;-77
2021/04/27 02:24:43;;;;;;;6.80;3.83;;;;;;;6.05;44.31;96777.16;1827981;78;21104;-78
2021/04/27 02:27:12;;;;;;;6.60;3.60;;;;;;;6.04;44.07;96767.15;1829496;78;21421;-78
2021/04/27 02:29:41;;;;;;;8.03;4.87;;;;;;;6.06;44.38;96771.81;1828715;78;21722;-78
2021/04/27 02:32:09;;;;;;;15.85;4.87;;;;;;;6.04;44.57;96766.33;1829586;78;21269;-78
2021/04/27 02:34:38;;;;;;;6.45;4.12;;;;;;;6.00;44.28;96757.84;1800151;78;21136;-78
2021/04/27 02:37:06;;;;;;;11.28;4.70;;;;;;;5.95;44.56;96761.19;1797379;80;21124;-80
2021/04/27 02:39:35;;;;;;;7.25;3.90;;;;;;;5.89;45.19;96755.90;1796750;78;21109;-77
2021/04/27 02:42:04;;;;;;;6.50;3.52;;;;;;;5.85;44.82;96753.59;1797030;80;21172;-78
2021/04/27 02:44:51;;;;;;;7.85;2.75;;;;;;;5.76;44.83;96760.28;1797031;80;21546;-78
2021/04/27 02:47:20;;;;;;;5.50;3.17;;;;;;;5.72;44.53;96755.73;1795392;80;21158;-78
2021/04/27 02:49:48;;;;;;;6.67;3.98;;;;;;;5.65;44.77;96747.93;1796976;80;21149;-78
2021/04/27 02:52:18;;;;;;;5.87;3.30;;;;;;;5.60;44.83;96752.16;1796717;80;21543;-78
2021/04/27 02:54:56;;;;;;;5.75;3.30;;;;;;;5.56;44.90;96755.89;1795342;80;21223;-78
2021/04/27 02:57:24;;;;;;;7.55;3.17;;;;;;;5.50;44.73;96752.38;1796745;80;21117;-78
2021/04/27 02:59:51;;;;;;;6.42;3.20;;;;;;;5.45;44.73;96760.53;1796410;80;21126;-78
2021/04/27 03:02:19;;;;;;;5.28;3.17;;;;;;;5.40;44.77;96747.39;1796485;80;21164;-78
2021/04/27 03:04:47;;;;;;;5.58;3.02;;;;;;;5.35;45.05;96750.30;1796681;80;21137;-77
2021/04/27 03:07:17;;;;;;;5.28;2.85;;;;;;;5.30;45.11;96752.35;1796375;80;21148;-78
2021/04/27 03:09:46;;;;;;;4.90;2.87;;;;;;;5.24;45.02;96752.75;1792100;78;21148;-77
2021/04/27 03:12:14;;;;;;;5.72;3.08;;;;;;;5.18;45.37;96753.16;1828771;78;21080;-77
2021/04/27 03:14:42;;;;;;;6.70;2.87;;;;;;;5.13;45.49;96750.36;1776144;80;21110;-77
2021/04/27 03:17:10;;;;;;;5.42;2.77;;;;;;;5.07;45.52;96749.91;1799629;80;21144;-78
2021/04/27 03:19:39;;;;;;;3.55;2.22;;;;;;;5.01;45.42;96753.77;1797904;80;21580;-77
2021/04/27 03:22:08;;;;;;;6.22;3.00;;;;;;;4.97;45.44;96762.72;1797912;79;21103;-78
2021/04/27 03:24:36;;;;;;;6.22;2.85;;;;;;;4.94;45.67;96759.84;1798295;78;21257;-78
2021/04/27 03:27:04;;;;;;;6.08;3.08;;;;;;;4.93;45.59;96762.08;1797863;80;21613;-78
2021/04/27 03:29:46;;;;;;;5.08;3.22;;;;;;;4.98;46.26;96760.48;1824073;77;22966;-78
2021/04/27 03:32:13;;;;;;;5.80;3.02;;;;;;;4.92;45.83;96770.84;1759148;81;21254;-77
2021/04/27 03:34:41;;;;;;;7.10;3.00;;;;;;;4.93;45.85;96768.61;1790400;80;21140;-76
2021/04/27 03:37:09;;;;;;;5.90;4.17;;;;;;;4.91;46.22;96765.25;1759907;81;21156;-78
2021/04/27 03:39:38;;;;;;;6.97;3.00;;;;;;;4.92;46.41;96770.02;1759372;81;21151;-77
2021/04/27 03:42:07;;;;;;;10.50;4.00;;;;;;;4.94;46.60;96765.06;1729331;83;21174;-78
2021/04/27 03:44:35;;;;;;;6.10;3.47;;;;;;;4.96;46.79;96766.27;1701321;83;21144;-78
2021/04/27 03:47:05;;;;;;;5.55;3.20;;;;;;;4.99;46.81;96760.86;1704357;84;21146;-77
2021/04/27 03:49:33;;;;;;;7.50;4.58;;;;;;;5.05;46.64;96769.61;1704913;84;21122;-77
2021/04/27 03:52:02;;;;;;;11.70;4.67;;;;;;;5.10;47.52;96769.31;1704875;84;21098;-77
2021/04/27 03:54:31;;;;;;;13.22;4.65;;;;;;;5.13;47.67;96760.81;1704627;84;21137;-78
2021/04/27 03:57:00;;;;;;;9.58;5.37;;;;;;;5.16;47.32;96760.63;1704743;84;21130;-77
2021/04/27 03:59:27;;;;;;;9.25;5.15;;;;;;;5.19;48.03;96762.68;1704533;84;21563;-77
2021/04/27 04:01:55;;;;;;;10.93;4.87;;;;;;;5.24;48.19;96767.13;1727226;81;21536;-78
2021/04/27 04:04:24;;;;;;;10.53;5.65;;;;;;;5.29;48.09;96762.47;1724690;81;21136;-78
2021/04/27 04:06:53;;;;;;;9.80;5.50;;;;;;;5.33;48.04;96768.33;1721797;80;21319;-78
2021/04/27 04:09:34;;;;;;;9.13;5.45;;;;;;;5.39;48.28;96770.05;1693567;83;21611;-77
2021/04/27 04:12:20;;;;;;;10.32;4.30;;;;;;;5.51;48.66;96767.59;1779466;80;25486;-78
2021/04/27 04:14:47;;;;;;;8.53;4.03;;;;;;;5.51;47.86;96770.20;1746871;81;21135;-78
2021/04/27 04:17:17;;;;;;;6.58;4.03;;;;;;;5.57;47.97;96764.11;1743168;81;21156;-76
2021/04/27 04:19:47;;;;;;;7.65;4.05;;;;;;;5.61;47.54;96762.95;1757689;81;21293;-79
2021/04/27 04:22:14;;;;;;;7.65;3.83;;;;;;;5.68;47.54;96760.78;1730564;82;21168;-78
2021/04/27 04:24:47;;;;;;;18.10;4.55;;;;;;;5.78;47.45;96751.88;1733001;81;21274;-76
2021/04/27 04:27:14;;;;;;;6.62;4.20;;;;;;;6.07;47.68;96753.05;1747872;81;21132;-77
2021/04/27 04:29:44;;;;;;;11.53;4.78;;;;;;;6.54;47.92;96748.92;1747407;82;21348;-77
2021/04/27 04:32:33;;;;;;;8.35;4.70;;;;;;;7.12;47.63;96748.86;1722921;81;21557;-77
2021/04/27 04:35:24;;;;;;;12.78;4.55;;;;;;;7.79;47.25;96754.88;1743896;81;21693;-78
2021/04/27 04:38:10;;;;;;;9.30;4.50;;;;;;;9.34;45.53;96752.19;1715032;81;21127;-78
2021/04/27 04:40:58;;;;;;;8.05;4.65;;;;;;;9.34;45.53;96752.19;1757522;81;21128;-78
2021/04/27 04:43:30;;;;;;;8.48;4.83;;;;;;;10.09;44.73;96753.56;1741491;82;21574;-79
2021/04/27 04:45:59;;;;;;;14.13;5.05;;;;;;;10.61;43.77;96748.80;1719056;81;21183;-78
2021/04/27 04:48:45;;;;;;;14.68;5.58;;;;;;;11.15;42.63;96757.33;1746358;81;21187;-78
2021/04/27 04:51:18;;;;;;;20.50;6.00;;;;;;;11.79;41.83;96759.13;1705040;83;21388;-77
2021/04/27 04:53:47;;;;;;;18.23;5.25;;;;;;;12.23;40.61;96763.14;1726837;83;21182;-78
2021/04/27 04:56:14;;;;;;;21.30;5.33;;;;;;;12.66;40.28;96757.84;1753442;81;21151;-77
2021/04/27 04:58:42;;;;;;;21.02;5.62;;;;;;;13.20;39.28;96766.43;1733045;81;21589;-78
2021/04/27 05:01:11;;;;;;;16.23;4.72;;;;;;;13.61;38.93;96764.23;1748990;81;21127;-78
2021/04/27 05:03:41;;;;;;;14.20;4.05;;;;;;;14.05;38.31;96764.32;1731194;81;21120;-79
2021/04/27 05:06:17;;;;;;;11.25;4.85;;;;;;;14.52;36.77;96764.98;1689257;81;21160;-77
2021/04/27 05:09:22;;;;;;;11.57;4.87;;;;;;;14.99;36.07;96765.91;1755714;80;21608;-77
2021/04/27 05:12:07;;;;;;;12.90;3.87;;;;;;;15.58;34.20;96767.77;1721344;81;21173;-77
2021/04/27 05:14:54;;;;;;;10.63;4.03;;;;;;;16.09;33.55;96765.53;1713439;82;21228;-77
2021/04/27 05:17:23;;;;;;;8.35;4.20;;;;;;;16.50;32.76;96764.67;1749982;81;21163;-78
2021/04/27 05:19:52;;;;;;;10.30;4.55;;;;;;;16.85;32.18;96765.25;1728830;82;21159;-78
2021/04/27 05:22:22;;;;;;;12.60;4.08;;;;;;;17.31;31.66;96769.91;1728670;82;21159;-78
2021/04/27 05:24:49;;;;;;;10.30;4.30;;;;;;;17.75;30.85;96765.84;1726609;82;21585;-78
2021/04/27 05:27:19;;;;;;;15.45;4.80;;;;;;;17.94;30.07;96768.04;1731028;82;21572;-79
2021/04/27 05:29:47;;;;;;;11.57;4.40;;;;;;;17.72;30.71;96767.55;1680231;83;21225;-78
2021/04/27 05:32:15;;;;;;;7.85;4.40;;;;;;;17.58;29.96;96769.13;1677211;85;21167;-77
2021/04/27 05:34:43;;;;;;;10.88;4.70;;;;;;;17.74;29.48;96770.36;1677360;85;21163;-79
2021/04/27 05:37:10;;;;;;;5.85;4.00;;;;;;;18.05;29.11;96770.81;1691196;83;21130;-78
2021/04/27 05:39:38;;;;;;;6.78;3.80;;;;;;;18.20;28.57;96768.20;1668515;85;21179;-78
2021/04/27 05:42:06;;;;;;;13.48;4.78;;;;;;;18.16;28.48;96766.06;1720558;83;21161;-78
2021/04/27 05:44:33;;;;;;;12.28;4.62;;;;;;;18.03;28.49;96774.67;1707874;83;21138;-78
2021/04/27 05:47:01;;;;;;;10.95;4.55;;;;;;;17.70;28.00;96765.55;1702810;84;21159;-76
2021/04/27 05:49:29;;;;;;;10.68;3.20;;;;;;;17.30;27.80;96766.95;1695525;83;21213;-76
2021/04/27 05:51:56;;;;;;;4.90;2.77;;;;;;;16.87;28.11;96763.25;1677221;85;21184;-78
2021/04/27 05:54:23;;;;;;;5.03;3.10;;;;;;;16.01;27.28;96761.52;1677180;85;21179;-76
2021/04/27 05:56:51;;;;;;;6.75;3.30;;;;;;;14.69;27.99;96763.27;1702865;83;21528;-77
2021/04/27 05:59:18;;;;;;;7.78;3.92;;;;;;;13.70;28.97;96755.38;1695435;82;21193;-77
2021/04/27 06:01:45;;;;;;;13.30;3.70;;;;;;;12.65;30.46;96754.84;1702300;83;21217;-78
2021/04/27 06:04:13;;;;;;;6.92;4.30;;;;;;;12.14;31.02;96755.59;1691655;83;21188;-74
2021/04/27 06:06:40;;;;;;;8.25;3.33;;;;;;;11.95;31.67;96763.86;1705475;83;21272;-75
2021/04/27 06:09:09;;;;;;;13.22;4.50;;;;;;;11.95;31.92;96769.14;1703861;84;21136;-75
2021/04/27 06:11:37;;;;;;;12.15;4.05;;;;;;;11.90;32.13;96765.25;1689808;83;21157;-74
2021/04/27 06:14:05;;;;;;;7.55;4.20;;;;;;;12.12;32.18;96773.39;1682683;83;21178;-74
2021/04/27 06:16:33;;;;;;;19.00;5.03;;;;;;;12.34;32.13;96774.89;1690657;84;21156;-75
2021/04/27 06:19:01;;;;;;;9.70;4.55;;;;;;;12.69;32.04;96768.11;1681373;84;21168;-75
2021/04/27 06:21:31;;;;;;;9.05;4.58;;;;;;;13.12;31.85;96769.33;1681214;83;21148;-74
2021/04/27 06:23:59;;;;;;;11.78;4.35;;;;;;;13.51;31.51;96759.02;1682835;83;21576;-74
2021/04/27 06:26:29;;;;;;;7.75;4.50;;;;;;;13.85;30.10;96753.04;1685938;84;21195;-76
2021/04/27 06:28:56;;;;;;;11.50;5.05;;;;;;;13.66;30.16;96755.36;1693571;84;21166;-76
2021/04/27 06:31:24;;;;;;;7.22;3.72;;;;;;;13.75;30.78;96757.58;1689653;84;21188;-76
2021/04/27 06:33:51;;;;;;;8.73;4.08;;;;;;;14.08;30.06;96776.42;1685426;84;21209;-76
2021/04/27 06:36:21;;;;;;;7.50;3.55;;;;;;;14.55;30.34;96766.48;1697880;83;21198;-76
2021/04/27 06:38:49;;;;;;;4.17;3.15;;;;;;;15.04;29.57;96773.39;1662047;84;21164;-76
2021/04/27 06:41:17;;;;;;;5.00;3.33;;;;;;;15.26;28.93;96778.64;1688056;83;21158;-77
2021/04/27 06:43:46;;;;;;;15.72;3.85;;;;;;;15.33;28.01;96778.81;1686534;83;21177;-76
2021/04/27 06:46:13;;;;;;;7.40;2.85;;;;;;;15.33;27.93;96771.35;1690961;83;21629;-76
2021/04/27 06:48:41;;;;;;;6.87;3.50;;;;;;;15.54;27.86;96766.92;1696774;84;21171;-77
2021/04/27 06:51:09;;;;;;;6.47;3.05;;;;;;;15.18;26.98;96769.30;1681167;85;21609;-75
2021/04/27 06:53:36;;;;;;;9.50;2.83;;;;;;;14.88;26.86;96778.14;1706500;82;21156;-80
2021/04/27 06:56:06;;;;;;;6.42;3.00;;;;;;;14.83;26.99;96776.45;1707828;82;21205;-78
2021/04/27 06:58:34;;;;;;;5.53;2.98;;;;;;;14.76;25.59;96770.93;1718803;83;21643;-78
2021/04/27 07:01:04;;;;;;;7.25;3.52;;;;;;;14.49;26.82;96777.22;1703462;82;21599;-77
2021/04/27 07:03:35;;;;;;;8.78;3.17;;;;;;;13.88;25.81;96778.39;1710695;82;21591;-79
2021/04/27 07:06:03;;;;;;;7.80;3.35;;;;;;;13.37;26.36;96777.55;1675657;84;21196;-77
2021/04/27 07:08:32;;;;;;;8.43;2.62;;;;;;;13.27;27.42;96778.09;1691662;83;21148;-78
2021/04/27 07:10:59;;;;;;;7.90;3.95;;;;;;;13.36;27.29;96779.84;1675685;83;21157;-79
2021/04/27 07:13:29;;;;;;;4.80;3.00;;;;;;;13.25;27.73;96780.89;1690263;83;21177;-78
2021/04/27 07:15:57;;;;;;;5.87;3.40;;;;;;;13.42;27.97;96785.07;1718441;82;21729;-78
2021/04/27 07:18:24;;;;;;;21.87;4.20;;;;;;;13.58;27.90;96787.88;1684810;84;21102;-79
2021/04/27 07:20:52;;;;;;;7.65;3.27;;;;;;;13.75;28.01;96794.66;1708966;84;21183;-77
2021/04/27 07:23:19;;;;;;;7.10;3.70;;;;;;;13.72;26.86;96804.25;1708861;84;21137;-79
2021/04/27 07:26:08;;;;;;;7.20;3.70;;;;;;;13.35;27.05;96807.30;1736535;82;21113;-78
2021/04/27 07:28:35;;;;;;;15.03;4.15;;;;;;;13.06;27.72;96801.65;1702577;84;21122;-78
2021/04/27 07:31:03;;;;;;;8.53;3.50;;;;;;;13.05;27.93;96801.80;1665560;84;21136;-78
2021/04/27 07:33:30;;;;;;;12.98;3.45;;;;;;;13.06;27.89;96797.68;1704590;83;21169;-78
2021/04/27 07:35:57;;;;;;;8.20;3.60;;;;;;;13.11;27.95;96793.27;1735161;83;21180;-80
2021/04/27 07:38:27;;;;;;;4.97;3.42;;;;;;;13.22;28.08;96793.59;1719432;83;21193;-79
2021/04/27 07:40:56;;;;;;;8.40;3.30;;;;;;;13.35;28.05;96794.56;1676557;83;21116;-75
2021/04/27 07:43:27;;;;;;;14.53;4.03;;;;;;;13.40;28.23;96793.17;1692476;83;21596;-80
2021/04/27 07:45:54;;;;;;;8.80;3.87;;;;;;;13.47;27.91;96797.86;1679030;84;21623;-81
2021/04/27 07:48:22;;;;;;;11.48;4.20;;;;;;;13.35;28.27;96794.56;1692255;83;21169;-78
2021/04/27 07:50:51;;;;;;;13.15;4.22;;;;;;;13.21;27.55;96796.70;1700820;83;21118;-77
2021/04/27 07:53:20;;;;;;;11.15;4.25;;;;;;;13.19;28.18;96796.52;1691139;83;21114;-77
2021/04/27 07:55:49;;;;;;;11.88;3.92;;;;;;;13.21;28.59;96800.67;1702260;84;21162;-76
2021/04/27 07:58:19;;;;;;;14.43;3.80;;;;;;;13.25;28.44;96798.56;1687093;83;21191;-78
2021/04/27 08:00:48;;;;;;;6.50;3.90;;;;;;;13.25;28.57;96803.86;1577140;88;21684;-79
2021/04/27 08:03:16;;;;;;;5.92;3.35;;;;;;;13.21;28.52;96791.92;1568623;90;21295;-78
2021/04/27 08:05:47;;;;;;;16.35;4.15;;;;;;;13.18;28.25;96799.64;1580948;90;21675;-79
2021/04/27 08:08:16;;;;;;;13.68;3.80;;;;;;;12.89;28.33;96803.74;1545905;92;21651;-76
2021/04/27 08:10:44;;;;;;;10.23;3.35;;;;;;;12.78;28.76;96802.12;1554363;90;22027;-77
2021/04/27 08:13:12;;;;;;;8.00;2.80;;;;;;;12.85;28.66;96803.20;1537388;90;21206;-78
2021/04/27 08:15:41;;;;;;;11.43;3.90;;;;;;;13.12;28.52;96794.94;1558333;90;21220;-78
2021/04/27 08:18:09;;;;;;;8.60;4.08;;;;;;;13.30;28.14;96799.45;1625154;83;21162;-77
2021/04/27 08:20:38;;;;;;;7.78;3.80;;;;;;;13.48;28.15;96802.17;1721721;83;21127;-75
2021/04/27 08:23:06;;;;;;;15.75;3.90;;;;;;;13.80;27.95;96796.86;1720784;83;21172;-76
2021/04/27 08:25:35;;;;;;;5.50;2.87;;;;;;;14.19;27.46;96793.89;1721241;82;21144;-78
2021/04/27 08:28:03;;;;;;;7.03;2.80;;;;;;;14.47;27.24;96799.92;1724790;82;21162;-79
2021/04/27 08:30:33;;;;;;;7.78;4.00;;;;;;;14.33;26.21;96798.66;1747869;82;21577;-78
2021/04/27 08:33:01;;;;;;;9.58;3.42;;;;;;;14.23;26.74;96801.05;1755067;82;21140;-78
2021/04/27 08:35:29;;;;;;;7.65;2.65;;;;;;;14.06;26.24;96799.59;1754995;82;21701;-81
2021/04/27 08:37:56;;;;;;;5.42;3.00;;;;;;;14.27;26.59;96796.61;1755112;82;21196;-76
2021/04/27 08:40:23;;;;;;;9.90;3.35;;;;;;;14.43;25.94;96805.19;1754901;82;21173;-78
2021/04/27 08:42:51;;;;;;;4.78;3.10;;;;;;;14.63;26.23;96799.69;1754875;82;21184;-76
2021/04/27 08:45:19;;;;;;;5.67;3.30;;;;;;;14.97;26.00;96805.06;1755155;82;21172;-78
2021/04/27 08:47:46;;;;;;;6.42;3.62;;;;;;;15.30;25.74;96803.05;1755097;81;21198;-77
2021/04/27 08:50:18;;;;;;;5.45;3.50;;;;;;;15.75;25.15;96794.36;1755088;81;21172;-78
2021/04/27 08:52:46;;;;;;;4.30;2.72;;;;;;;15.96;23.30;96796.56;1754875;82;21629;-77
2021/04/27 08:55:14;;;;;;;6.87;3.47;;;;;;;16.12;24.65;96795.75;1754414;82;21266;-77
2021/04/27 08:57:43;;;;;;;4.78;3.10;;;;;;;16.29;24.41;96799.26;1738964;82;21140;-78
2021/04/27 09:00:18;;;;;;;5.17;3.10;;;;;;;16.62;21.80;96794.41;1744901;82;21459;-78
2021/04/27 09:02:56;;;;;;;11.65;3.15;;;;;;;16.71;23.77;96790.73;1744788;82;21157;-78
2021/04/27 09:05:29;;;;;;;10.30;3.05;;;;;;;16.95;23.54;96783.70;1745097;82;21125;-77
2021/04/27 09:08:00;;;;;;;10.58;3.27;;;;;;;17.14;23.58;96779.31;1744728;82;21168;-77
2021/04/27 09:10:34;;;;;;;7.25;3.00;;;;;;;17.49;23.26;96789.13;1744807;82;21190;-77
2021/04/27 09:13:12;;;;;;;6.53;3.33;;;;;;;17.67;23.28;96784.06;1747092;82;21175;-78
2021/04/27 09:15:50;;;;;;;7.37;3.00;;;;;;;17.84;22.96;96782.11;1748140;81;21570;-78
2021/04/27 09:18:31;;;;;;;10.60;3.27;;;;;;;17.99;22.76;96783.53;1747978;82;21145;-78
2021/04/27 09:21:09;;;;;;;5.97;3.05;;;;;;;18.19;22.91;96782.54;1748086;81;21137;-78
2021/04/27 09:23:42;;;;;;;6.92;3.33;;;;;;;18.33;22.71;96782.26;1747899;81;21145;-77
2021/04/27 09:26:19;;;;;;;3.05;2.20;;;;;;;18.30;22.23;96772.45;1748000;81;21160;-77
2021/04/27 09:28:50;;;;;;;5.12;3.10;;;;;;;18.02;21.83;96779.19;1748348;82;21159;-79
2021/04/27 09:31:35;;;;;;;4.53;2.85;;;;;;;17.63;22.07;96771.56;1748431;81;21200;-78
2021/04/27 09:34:26;;;;;;;4.92;2.85;;;;;;;17.38;21.74;96774.05;1748059;82;21164;-79
2021/04/27 09:37:00;;;;;;;6.58;3.10;;;;;;;17.23;22.08;96763.30;1748098;81;21641;-79
2021/04/27 09:39:44;;;;;;;6.78;2.58;;;;;;;17.14;22.30;96766.00;1752845;80;21574;-78
2021/04/27 09:42:19;;;;;;;10.30;3.17;;;;;;;17.20;22.44;96763.66;1756298;81;21561;-77
2021/04/27 09:44:51;;;;;;;5.53;2.95;;;;;;;17.13;22.59;96760.34;1755564;82;21120;-78
2021/04/27 09:47:30;;;;;;;7.33;3.17;;;;;;;17.10;22.42;96756.71;1756259;82;21128;-78
2021/04/27 09:50:12;;;;;;;3.20;1.87;;;;;;;17.10;22.26;96755.38;1756636;82;21183;-78
2021/04/27 09:52:46;;;;;;;4.97;3.30;;;;;;;17.01;21.64;96751.09;1755642;82;21155;-78
2021/04/27 09:55:20;;;;;;;8.03;3.22;;;;;;;16.60;22.18;96747.17;1756105;82;21176;-78
2021/04/27 09:57:56;;;;;;;4.15;2.75;;;;;;;16.59;22.23;96748.17;1756248;82;21148;-79
2021/04/27 10:00:39;;;;;;;6.22;2.62;;;;;;;16.49;22.10;96749.19;1756405;82;21140;-78
2021/04/27 10:03:12;;;;;;;4.33;2.70;;;;;;;16.10;21.85;96755.20;1756265;82;21136;-78
2021/04/27 10:08:24;;;;;;;3.85;2.75;;;;;;;15.68;22.66;96746.37;1780425;79;22949;-78
2021/04/27 10:10:52;;;;;;;4.92;2.83;;;;;;;15.18;22.45;96747.23;1723780;83;21182;-79
2021/04/27 10:13:24;;;;;;;3.22;2.08;;;;;;;15.19;23.21;96747.06;1724243;83;21148;-78
2021/04/27 10:15:53;;;;;;;4.20;2.72;;;;;;;15.23;22.42;96740.45;1723715;83;21152;-77
2021/04/27 10:18:22;;;;;;;4.70;2.80;;;;;;;15.04;23.07;96736.73;1723666;83;21159;-77
2021/04/27 10:20:51;;;;;;;4.10;3.02;;;;;;;15.08;22.65;96735.44;1724058;83;21160;-78
2021/04/27 10:23:19;;;;;;;7.60;2.42;;;;;;;15.03;23.35;96733.27;1723960;82;21293;-79
2021/04/27 10:25:46;;;;;;;5.62;2.83;;;;;;;14.90;22.82;96733.69;1723630;83;21190;-76
2021/04/27 10:28:14;;;;;;;5.97;3.33;;;;;;;14.67;23.36;96727.62;1723779;82;21597;-79
2021/04/27 10:30:44;;;;;;;5.12;2.65;;;;;;;14.82;23.00;96726.55;1723709;83;21167;-78
2021/04/27 10:33:24;;;;;;;8.05;3.12;;;;;;;15.01;23.59;96724.63;1723949;82;21247;-78
2021/04/27 10:36:10;;;;;;;7.37;3.15;;;;;;;15.20;23.50;96719.53;1724373;83;21188;-78
2021/04/27 10:38:47;;;;;;;4.47;2.75;;;;;;;15.51;23.80;96715.44;1723809;83;21168;-77
2021/04/27 10:41:21;;;;;;;4.72;2.70;;;;;;;15.82;23.63;96720.13;1723764;83;21609;-78
2021/04/27 10:43:57;;;;;;;5.37;2.90;;;;;;;15.99;22.63;96710.38;1723723;83;21147;-79
2021/04/27 10:46:31;;;;;;;4.70;2.83;;;;;;;16.05;23.59;96710.52;1723724;83;21168;-77
2021/04/27 10:49:27;;;;;;;8.70;3.15;;;;;;;16.31;23.17;96706.84;1721497;83;21160;-79
2021/04/27 10:51:58;;;;;;;6.15;2.92;;;;;;;16.53;23.01;96704.45;1723778;83;21565;-76
2021/04/27 10:54:37;;;;;;;5.70;2.67;;;;;;;16.57;22.81;96704.45;1723471;83;21183;-79
2021/04/27 10:57:12;;;;;;;7.90;2.83;;;;;;;16.75;23.16;96708.72;1713810;83;21565;-77
2021/04/27 10:59:57;;;;;;;6.58;2.83;;;;;;;17.08;23.03;96706.78;1723918;83;21286;-78
2021/04/27 11:02:31;;;;;;;4.72;2.90;;;;;;;17.44;22.96;96704.92;1644529;85;21155;-77
2021/04/27 11:05:21;;;;;;;10.50;4.28;;;;;;;17.68;22.00;96692.94;1818439;78;22746;-76
2021/04/27 11:07:54;;;;;;;6.62;3.27;;;;;;;17.72;22.59;96700.40;1707673;84;21191;-77
2021/04/27 11:10:30;;;;;;;6.25;3.37;;;;;;;18.03;22.52;96697.34;1749956;79;22690;-78
2021/04/27 11:13:02;;;;;;;7.12;2.83;;;;;;;18.18;21.94;96692.89;1715822;83;21132;-78
2021/04/27 11:15:32;;;;;;;9.00;3.47;;;;;;;18.31;22.19;96694.93;1695003;83;21207;-75
2021/04/27 11:18:19;;;;;;;4.83;2.77;;;;;;;18.46;22.32;96695.44;1722125;83;21157;-75
2021/04/27 11:21:07;;;;;;;4.00;2.47;;;;;;;18.67;22.14;96684.87;1723863;83;21175;-78
2021/04/27 11:23:49;;;;;;;5.62;2.72;;;;;;;18.67;21.79;96695.55;1723332;83;21096;-77
2021/04/27 11:26:37;;;;;;;5.05;2.70;;;;;;;18.46;21.71;96694.10;1723831;83;21132;-78
2021/04/27 11:29:33;;;;;;;6.33;3.00;;;;;;;18.47;21.73;96687.76;1723622;83;21171;-77
2021/04/27 11:32:16;;;;;;;3.90;2.75;;;;;;;18.36;21.63;96685.86;1723276;83;21171;-77
2021/04/27 11:34:56;;;;;;;6.05;3.20;;;;;;;18.55;21.58;96678.33;1694876;84;21155;-78
2021/04/27 11:37:34;;;;;;;4.55;2.17;;;;;;;18.44;21.03;96681.44;1717136;83;21139;-78
2021/04/27 11:40:24;;;;;;;8.40;2.80;;;;;;;17.12;20.71;96674.80;1717703;83;21143;-77
2021/04/27 11:43:01;;;;;;;5.33;2.27;;;;;;;17.12;20.71;96674.80;1724666;82;21631;-78
2021/04/27 11:45:36;;;;;;;4.80;2.40;;;;;;;16.51;21.24;96674.04;1753923;82;21140;-78
2021/04/27 11:48:06;;;;;;;5.83;2.75;;;;;;;16.12;21.79;96668.66;1753183;82;21167;-75
2021/04/27 11:50:34;;;;;;;9.95;3.67;;;;;;;15.89;22.67;96676.83;1695564;83;21168;-79
2021/04/27 11:53:09;;;;;;;4.87;3.15;;;;;;;16.10;22.82;96668.80;1720314;83;21589;-77
2021/04/27 11:55:52;;;;;;;6.08;3.00;;;;;;;16.32;22.88;96667.30;1723820;83;21672;-77
2021/04/27 11:58:24;;;;;;;6.62;3.35;;;;;;;16.48;22.80;96666.91;1723591;83;21104;-78
2021/04/27 12:00:54;;;;;;;6.55;2.08;;;;;;;16.71;22.80;96669.66;1711360;83;21140;-78